Time;durP1;ratioP1;P1;durP2;ratioP2;P2;SDS_P1;SDS_P2;PMS_P1;PMS_P2;Temp;Humidity;BMP_temperature;BMP_pressure;BME280_temperature;BME280_humidity;BME280_pressure;Samples;Min_cycle;Max_cycle;Signal;HPM_P1;HPM_P2
2022/05/22 00:01:04;;;;;;;5.53;3.67;;;;;;;11.24;65.68;100250.68;2092981;84;27748;-67
2022/05/22 00:04:06;;;;;;;5.97;3.80;;;;;;;11.22;65.73;100264.15;2088333;84;28655;-67
2022/05/22 00:07:08;;;;;;;6.47;4.53;;;;;;;11.18;65.91;100261.23;2115176;84;31014;-66
2022/05/22 00:10:12;;;;;;;6.08;4.58;;;;;;;11.15;66.09;100257.40;2115002;84;32961;-66
2022/05/22 00:13:14;;;;;;;6.92;4.50;;;;;;;11.12;66.17;100262.91;2084908;84;29354;-66
2022/05/22 00:19:38;;;;;;;10.50;4.50;;;;;;;11.05;66.45;100258.81;2111176;84;28695;-69
2022/05/22 00:22:40;;;;;;;10.55;4.35;;;;;;;11.01;66.39;100255.43;2083617;85;31124;-66
2022/05/22 00:25:42;;;;;;;11.08;4.83;;;;;;;10.98;66.63;100258.27;2079755;85;33011;-66
2022/05/22 00:28:44;;;;;;;6.72;4.90;;;;;;;10.94;66.53;100255.34;2081921;84;30037;-66
2022/05/22 00:31:46;;;;;;;9.70;4.70;;;;;;;10.90;66.64;100255.98;2065758;85;27786;-66
2022/05/22 00:34:48;;;;;;;10.35;4.70;;;;;;;10.86;66.72;100255.74;2083194;85;28712;-67
2022/05/22 00:37:50;;;;;;;6.75;4.62;;;;;;;10.81;66.72;100251.56;2083257;85;31771;-66
2022/05/22 00:40:51;;;;;;;7.75;4.72;;;;;;;10.77;66.87;100256.23;2083364;85;32953;-66
2022/05/22 00:43:56;;;;;;;8.58;4.70;;;;;;;10.73;67.01;100255.53;2083329;85;29319;-66
2022/05/22 00:46:58;;;;;;;8.75;4.67;;;;;;;10.69;67.10;100259.30;2083381;85;27750;-67
2022/05/22 00:50:00;;;;;;;7.62;4.90;;;;;;;10.62;67.14;100251.16;2083333;85;29400;-66
2022/05/22 00:53:02;;;;;;;7.37;4.90;;;;;;;10.59;67.42;100258.89;2083145;85;31174;-66
2022/05/22 00:56:07;;;;;;;9.35;4.90;;;;;;;10.54;67.52;100255.57;2083395;84;32931;-66
2022/05/22 00:59:12;;;;;;;7.42;4.67;;;;;;;10.50;67.52;100251.34;2083907;85;29321;-66
2022/05/22 01:02:15;;;;;;;5.90;4.92;;;;;;;10.46;67.60;100260.46;2083298;85;27704;-67
2022/05/22 01:05:17;;;;;;;8.18;5.42;;;;;;;10.40;67.63;100256.28;2083495;85;28865;-65
2022/05/22 01:08:18;;;;;;;9.13;5.55;;;;;;;10.36;67.94;100252.44;2083654;85;31002;-66
2022/05/22 01:11:28;;;;;;;8.00;5.00;;;;;;;10.30;67.81;100250.94;2083344;85;32941;-66
2022/05/22 01:14:30;;;;;;;7.70;4.85;;;;;;;10.24;67.94;100257.95;2083370;85;29330;-66
2022/05/22 01:17:39;;;;;;;7.87;4.87;;;;;;;10.19;67.95;100260.83;2034231;85;28154;-67
2022/05/22 01:20:50;;;;;;;9.98;5.22;;;;;;;10.14;68.01;100254.37;2084998;84;29516;-68
2022/05/22 01:23:53;;;;;;;9.45;5.97;;;;;;;10.10;68.21;100256.78;2086671;85;31066;-66
2022/05/22 01:26:59;;;;;;;8.55;5.17;;;;;;;10.06;68.42;100255.67;2086863;85;33143;-66
2022/05/22 01:30:18;;;;;;;9.35;5.20;;;;;;;10.01;68.43;100255.91;2061472;85;29344;-66
2022/05/22 01:33:19;;;;;;;9.23;5.80;;;;;;;9.98;68.81;100254.70;2080813;85;27633;-69
2022/05/22 01:36:22;;;;;;;9.53;5.65;;;;;;;9.94;68.93;100258.47;2062304;85;29624;-66
2022/05/22 01:39:24;;;;;;;10.38;5.53;;;;;;;9.88;68.91;100260.52;2086830;85;31152;-66
2022/05/22 01:42:25;;;;;;;11.33;5.75;;;;;;;9.84;68.94;100252.23;2067280;85;33888;-66
2022/05/22 01:45:27;;;;;;;9.20;5.33;;;;;;;9.82;69.10;100249.23;2052709;86;29297;-66
2022/05/22 01:48:30;;;;;;;10.95;5.90;;;;;;;9.78;69.18;100248.98;2061731;85;27720;-67
2022/05/22 01:51:41;;;;;;;8.78;5.83;;;;;;;9.75;69.24;100259.81;2067658;85;28636;-67
2022/05/22 01:54:43;;;;;;;7.78;5.83;;;;;;;9.70;69.34;100251.53;2054897;85;31027;-67
2022/05/22 01:57:45;;;;;;;8.90;5.53;;;;;;;9.66;69.49;100257.98;2081728;85;32951;-66
2022/05/22 02:00:47;;;;;;;9.65;5.40;;;;;;;9.63;69.43;100252.77;2086781;85;29358;-66
2022/05/22 02:03:48;;;;;;;13.08;6.00;;;;;;;9.58;69.53;100252.11;2087142;85;28192;-66
2022/05/22 02:10:11;;;;;;;8.10;5.70;;;;;;;9.52;69.82;100249.25;2052897;85;31822;-66
2022/05/22 02:13:12;;;;;;;9.18;5.97;;;;;;;9.48;69.80;100246.80;2081042;85;32990;-66
2022/05/22 02:16:15;;;;;;;9.38;6.72;;;;;;;9.43;69.81;100241.67;2087136;85;29322;-66
2022/05/22 02:19:17;;;;;;;9.33;5.90;;;;;;;9.39;69.83;100242.26;2086939;84;27633;-67
2022/05/22 02:22:18;;;;;;;23.00;9.08;;;;;;;9.36;69.89;100242.88;2083388;85;28746;-66
2022/05/22 02:25:26;;;;;;;8.03;6.03;;;;;;;9.32;70.00;100239.48;2083316;85;31952;-66
2022/05/22 02:28:28;;;;;;;12.58;6.58;;;;;;;9.28;70.08;100245.41;2082393;85;33084;-66
2022/05/22 02:31:30;;;;;;;8.10;5.17;;;;;;;9.23;70.19;100243.44;2083076;85;29295;-66
2022/05/22 02:34:33;;;;;;;8.48;5.80;;;;;;;9.20;70.26;100237.34;2083573;85;27725;-66
2022/05/22 02:37:47;;;;;;;12.33;7.25;;;;;;;9.18;70.41;100240.58;2083435;85;28679;-66
2022/05/22 02:40:49;;;;;;;7.62;5.30;;;;;;;9.14;70.56;100239.83;2083680;84;31178;-66
2022/05/22 02:43:51;;;;;;;12.55;5.75;;;;;;;9.13;70.56;100240.76;2083490;85;33103;-66
2022/05/22 02:46:53;;;;;;;7.62;5.47;;;;;;;9.12;70.69;100244.37;2083313;85;29327;-68
2022/05/22 02:49:55;;;;;;;9.65;5.72;;;;;;;9.09;70.86;100246.72;2083567;85;27812;-68
2022/05/22 02:52:56;;;;;;;7.45;5.08;;;;;;;9.10;70.96;100240.44;2083261;85;28610;-67
2022/05/22 02:56:08;;;;;;;8.80;6.37;;;;;;;9.10;71.08;100238.25;2083384;85;31065;-66
2022/05/22 02:59:10;;;;;;;8.00;5.87;;;;;;;9.11;71.21;100234.16;2048829;85;33846;-66
2022/05/22 03:02:12;;;;;;;9.45;6.03;;;;;;;9.17;71.35;100234.34;2074523;85;29483;-66
2022/05/22 03:05:14;;;;;;;10.10;5.67;;;;;;;9.23;71.48;100239.88;2083097;85;27760;-67
2022/05/22 03:08:17;;;;;;;6.20;5.53;;;;;;;9.31;71.74;100240.87;2083389;85;29454;-65
2022/05/22 03:11:19;;;;;;;11.70;6.53;;;;;;;9.41;71.86;100230.17;2083556;85;31035;-65
2022/05/22 03:14:21;;;;;;;9.88;6.53;;;;;;;9.54;72.03;100237.14;2083571;84;33048;-64
2022/05/22 03:17:23;;;;;;;8.38;5.97;;;;;;;9.68;72.11;100244.04;2083610;85;29321;-65
2022/05/22 03:20:24;;;;;;;9.63;5.90;;;;;;;9.81;72.38;100237.66;2083693;84;27735;-65
2022/05/22 03:23:26;;;;;;;9.88;5.72;;;;;;;9.96;72.47;100233.84;2083111;85;28702;-66
2022/05/22 03:26:28;;;;;;;10.35;5.50;;;;;;;10.10;72.50;100231.36;2083091;85;31210;-66
2022/05/22 03:29:30;;;;;;;3.55;2.37;;;;;;;10.24;72.50;100229.84;2082794;85;32861;-65
2022/05/22 03:32:35;;;;;;;6.25;3.60;;;;;;;10.39;72.71;100233.13;2082815;85;30284;-69
2022/05/22 03:35:37;;;;;;;11.97;5.75;;;;;;;10.58;72.99;100229.52;2083484;85;27720;-68
2022/05/22 03:38:39;;;;;;;11.48;5.85;;;;;;;10.77;72.54;100234.79;2083344;85;28655;-65
2022/05/22 03:41:41;;;;;;;6.87;5.55;;;;;;;10.90;72.25;100232.34;2083442;85;31190;-66
2022/05/22 03:44:43;;;;;;;6.30;4.60;;;;;;;11.03;72.12;100232.09;2083369;85;33055;-66
2022/05/22 03:47:46;;;;;;;11.10;5.47;;;;;;;11.18;71.91;100237.59;2083188;85;27747;-66
2022/05/22 03:50:48;;;;;;;8.08;4.95;;;;;;;11.32;71.89;100240.39;2083183;85;27609;-66
2022/05/22 03:53:50;;;;;;;8.15;4.85;;;;;;;11.46;71.79;100240.11;2083352;85;29474;-65
2022/05/22 03:56:52;;;;;;;8.80;5.33;;;;;;;11.60;71.63;100239.37;2083365;84;31022;-66
2022/05/22 03:59:53;;;;;;;9.95;5.47;;;;;;;11.73;71.39;100244.94;2083495;85;32941;-66
2022/05/22 04:02:55;;;;;;;5.87;4.22;;;;;;;11.85;71.25;100237.05;2083233;85;29920;-66
2022/05/22 04:05:57;;;;;;;6.80;4.65;;;;;;;11.99;71.04;100234.97;2082912;85;27853;-66
2022/05/22 04:08:59;;;;;;;8.80;4.10;;;;;;;12.13;70.86;100236.87;2083167;85;28544;-66
2022/05/22 04:12:02;;;;;;;10.43;4.37;;;;;;;12.29;70.59;100234.16;2083119;85;31920;-66
2022/05/22 04:15:08;;;;;;;8.95;4.62;;;;;;;12.51;70.47;100234.71;2056279;85;32822;-66
2022/05/22 04:18:10;;;;;;;8.40;3.95;;;;;;;12.71;70.23;100229.03;2082938;85;30899;-66
2022/05/22 04:21:12;;;;;;;7.25;4.12;;;;;;;12.92;69.78;100230.89;2083007;84;28337;-66
2022/05/22 04:27:40;;;;;;;9.75;3.90;;;;;;;13.34;69.07;100235.56;2082869;85;31079;-66
2022/05/22 04:30:42;;;;;;;9.33;3.37;;;;;;;13.54;68.53;100238.38;2083020;85;33842;-65
2022/05/22 04:33:43;;;;;;;8.15;3.45;;;;;;;13.71;68.19;100231.94;2083312;85;29318;-65
2022/05/22 04:36:45;;;;;;;5.28;3.00;;;;;;;14.01;68.19;100234.06;2083766;84;27696;-65
2022/05/22 04:39:47;;;;;;;5.08;3.00;;;;;;;14.92;68.33;100222.63;2083334;85;29660;-65
2022/05/22 04:42:49;;;;;;;7.03;2.67;;;;;;;16.22;67.79;100224.69;2083724;84;31009;-65
2022/05/22 04:45:51;;;;;;;4.83;2.75;;;;;;;17.57;66.59;100188.60;2083757;85;32931;-63
2022/05/22 04:48:53;;;;;;;4.47;2.55;;;;;;;19.09;65.17;100184.13;2083662;85;30158;-63
2022/05/22 04:51:59;;;;;;;3.17;2.25;;;;;;;20.50;62.84;100204.16;2083569;85;27995;-63
2022/05/22 04:55:01;;;;;;;7.90;2.58;;;;;;;21.64;60.83;100210.20;2083478;85;29633;-64
2022/05/22 04:58:03;;;;;;;6.25;2.35;;;;;;;22.33;58.49;100195.29;2082928;85;32240;-64
2022/05/22 05:01:07;;;;;;;5.20;2.40;;;;;;;22.88;56.13;100205.17;2083211;85;33090;-64
2022/05/22 05:04:09;;;;;;;3.65;2.35;;;;;;;23.16;55.62;100202.29;2083497;85;32762;-63
2022/05/22 05:07:11;;;;;;;2.72;2.00;;;;;;;23.94;54.55;100200.48;2083356;85;27729;-64
2022/05/22 05:10:13;;;;;;;3.00;1.65;;;;;;;24.64;52.89;100201.12;2083347;85;28093;-63
2022/05/22 05:13:15;;;;;;;4.92;2.25;;;;;;;25.40;52.04;100200.36;2083342;85;31028;-64
2022/05/22 05:16:17;;;;;;;4.53;2.33;;;;;;;26.12;50.47;100191.73;2083217;85;33115;-65
2022/05/22 05:19:19;;;;;;;4.45;2.00;;;;;;;26.78;48.99;100204.11;2083219;85;29328;-65
2022/05/22 05:22:20;;;;;;;4.80;2.22;;;;;;;27.22;47.24;100201.98;2072570;84;27700;-64
2022/05/22 05:25:22;;;;;;;7.33;2.05;;;;;;;27.62;45.74;100196.27;2052563;86;28778;-64
2022/05/22 05:28:24;;;;;;;3.83;1.70;;;;;;;27.96;44.95;100200.30;2052580;86;31165;-65
2022/05/22 05:31:26;;;;;;;4.72;2.37;;;;;;;27.63;43.34;100198.48;2052660;86;32972;-65
2022/05/22 05:34:28;;;;;;;6.65;2.30;;;;;;;26.92;42.75;100192.86;2052645;86;29531;-66
2022/05/22 05:37:29;;;;;;;5.17;1.87;;;;;;;26.16;41.86;100201.82;2062194;85;27556;-67
2022/05/22 05:40:32;;;;;;;4.60;2.22;;;;;;;25.47;42.11;100204.16;2086954;85;28632;-65
2022/05/22 05:43:34;;;;;;;7.12;2.20;;;;;;;25.17;42.10;100202.99;2086973;85;31024;-64
2022/05/22 05:46:37;;;;;;;5.25;2.35;;;;;;;25.02;41.88;100203.70;2069198;85;33018;-66
2022/05/22 05:49:40;;;;;;;5.53;1.95;;;;;;;24.68;41.57;100207.45;2052570;86;29337;-66
2022/05/22 05:52:42;;;;;;;3.87;2.00;;;;;;;24.63;41.65;100200.29;2052707;86;27638;-65
2022/05/22 05:55:44;;;;;;;4.28;1.65;;;;;;;24.83;41.62;100200.83;2052611;86;28620;-62
2022/05/22 05:58:46;;;;;;;4.30;2.02;;;;;;;25.31;41.25;100198.69;2052574;86;31831;-65
2022/05/22 06:01:48;;;;;;;5.33;1.80;;;;;;;25.77;40.43;100197.52;2052476;86;33043;-65
2022/05/22 06:04:49;;;;;;;3.98;1.70;;;;;;;25.78;39.37;100203.88;2052681;86;29320;-65
2022/05/22 06:07:54;;;;;;;6.45;1.80;;;;;;;26.00;39.59;100202.22;2052496;86;27634;-65
2022/05/22 06:10:56;;;;;;;1.67;1.47;;;;;;;26.38;39.22;100202.87;2028470;86;28657;-65
2022/05/22 06:13:57;;;;;;;5.55;1.75;;;;;;;26.87;38.89;100203.55;2052754;86;31866;-66
2022/05/22 06:17:00;;;;;;;4.80;1.50;;;;;;;27.44;37.95;100202.10;2074243;85;32765;-64
2022/05/22 06:20:06;;;;;;;3.30;1.52;;;;;;;27.95;37.05;100206.84;2086973;85;29329;-65
2022/05/22 06:23:08;;;;;;;3.42;1.72;;;;;;;27.92;36.29;100209.98;2083495;84;27591;-65
2022/05/22 06:26:14;;;;;;;4.53;1.55;;;;;;;27.82;35.67;100214.41;2083205;85;28702;-65
2022/05/22 06:29:16;;;;;;;6.00;1.62;;;;;;;27.62;35.48;100213.28;2083224;85;31884;-65
2022/05/22 06:32:20;;;;;;;5.92;1.32;;;;;;;27.83;35.43;100215.25;2083165;85;32416;-66
2022/05/22 06:35:29;;;;;;;4.53;1.82;;;;;;;28.34;34.75;100218.55;2083265;85;29335;-66
2022/05/22 06:41:57;;;;;;;4.85;1.30;;;;;;;28.90;34.18;100214.22;2083255;85;28838;-65
2022/05/22 06:45:05;;;;;;;4.35;1.42;;;;;;;29.36;32.46;100215.66;2083545;85;31718;-65
2022/05/22 06:48:08;;;;;;;3.37;1.72;;;;;;;28.73;31.99;100210.36;2083060;85;33050;-65
2022/05/22 06:51:11;;;;;;;4.12;1.40;;;;;;;27.94;32.39;100218.04;2083885;85;29483;-65
2022/05/22 06:54:13;;;;;;;3.85;1.40;;;;;;;28.00;31.87;100212.61;2083942;84;27701;-63
2022/05/22 06:57:21;;;;;;;3.05;1.37;;;;;;;27.92;32.25;100220.13;2083861;85;28211;-65
2022/05/22 07:00:24;;;;;;;4.45;1.35;;;;;;;27.86;32.23;100212.98;2083954;85;31012;-65
2022/05/22 07:03:25;;;;;;;6.37;1.50;;;;;;;27.38;31.82;100217.47;2083659;85;32985;-66
2022/05/22 07:06:27;;;;;;;4.87;1.60;;;;;;;26.74;32.17;100212.38;2083860;85;29495;-66
2022/05/22 07:12:32;;;;;;;1.27;0.80;;;;;;;26.05;32.46;100219.52;2027408;87;28720;-67
2022/05/22 07:15:34;;;;;;;1.90;1.00;;;;;;;25.84;32.49;100215.50;2027199;87;31016;-66
2022/05/22 07:18:36;;;;;;;4.22;1.20;;;;;;;25.41;32.61;100214.95;2062057;84;33605;-66
2022/05/22 07:21:38;;;;;;;3.80;1.15;;;;;;;25.05;32.97;100213.48;2061875;86;30336;-66
2022/05/22 07:24:40;;;;;;;4.45;1.00;;;;;;;24.62;33.06;100221.86;2061936;86;27873;-65
2022/05/22 07:27:43;;;;;;;2.83;0.80;;;;;;;24.07;32.80;100224.67;2062136;84;29709;-64
2022/05/22 07:30:46;;;;;;;1.67;0.78;;;;;;;23.45;33.65;100222.98;2062316;86;31021;-66
2022/05/22 07:33:48;;;;;;;2.55;0.65;;;;;;;22.80;33.82;100227.83;2039298;86;33006;-65
2022/05/22 07:37:00;;;;;;;5.92;0.90;;;;;;;22.24;34.46;100221.11;2062058;86;29020;-66
2022/05/22 07:40:06;;;;;;;3.12;0.95;;;;;;;21.90;34.92;100227.21;2062065;86;27786;-66
2022/05/22 07:43:07;;;;;;;1.52;0.95;;;;;;;21.63;35.50;100226.69;2039930;86;28243;-64
2022/05/22 07:46:12;;;;;;;2.15;0.90;;;;;;;;;;2059550;86;31760;-65
2022/05/22 07:52:40;;;;;;;2.00;0.80;;;;;;;21.64;36.01;100209.33;2061670;86;29371;-65
2022/05/22 07:55:41;;;;;;;4.10;0.98;;;;;;;21.63;36.43;100203.52;2062178;86;27782;-65
2022/05/22 07:58:43;;;;;;;3.67;1.07;;;;;;;21.79;36.83;100196.06;2061878;86;29642;-66
2022/05/22 08:01:45;;;;;;;4.55;1.12;;;;;;;21.91;36.56;100197.56;2061488;86;31060;-66
2022/05/22 08:04:47;;;;;;;2.98;0.93;;;;;;;22.00;36.75;100194.42;2061925;86;33035;-67
2022/05/22 08:07:49;;;;;;;3.37;1.00;;;;;;;22.11;36.67;100190.10;2061911;86;30138;-66
2022/05/22 08:10:53;;;;;;;3.83;0.93;;;;;;;22.39;36.40;100176.91;2062233;86;27761;-66
2022/05/22 08:13:55;;;;;;;2.33;1.15;;;;;;;22.64;36.63;100177.16;2061897;86;29839;-66
2022/05/22 08:16:58;;;;;;;1.60;0.80;;;;;;;22.97;36.09;100167.84;2086991;84;31014;-66
2022/05/22 08:20:00;;;;;;;2.37;1.02;;;;;;;23.23;35.78;100171.09;2079986;85;32982;-66
2022/05/22 08:23:06;;;;;;;4.45;0.90;;;;;;;23.35;35.63;100161.09;2083339;84;29320;-66
2022/05/22 08:26:08;;;;;;;4.58;0.85;;;;;;;23.43;35.43;100171.70;2083885;85;27721;-66
2022/05/22 08:29:10;;;;;;;3.92;0.98;;;;;;;23.32;35.19;100166.05;2083592;85;29354;-66
2022/05/22 08:32:14;;;;;;;4.62;0.80;;;;;;;23.18;34.87;100167.46;2083644;85;31065;-66
2022/05/22 08:35:31;;;;;;;3.27;0.72;;;;;;;23.01;35.25;100159.66;2083870;85;36661;-66
2022/05/22 08:38:32;;;;;;;3.17;0.75;;;;;;;23.11;35.44;100169.11;2083106;84;30300;-66
2022/05/22 08:41:40;;;;;;;1.07;0.68;;;;;;;23.45;35.51;100160.98;2083722;84;27733;-66
2022/05/22 08:44:43;;;;;;;4.55;0.80;;;;;;;23.77;35.39;100163.49;2083272;85;29632;-66
2022/05/22 08:48:08;;;;;;;2.47;0.70;;;;;;;24.35;35.36;100152.67;2083558;85;31976;-66
2022/05/22 08:51:16;;;;;;;3.30;0.65;;;;;;;24.75;34.59;100152.87;2074934;85;33055;-66
2022/05/22 08:54:29;;;;;;;3.02;0.70;;;;;;;25.18;34.28;100148.50;2083238;85;30195;-65
2022/05/22 09:01:19;;;;;;;3.08;0.90;;;;;;;24.86;33.44;100148.92;2007624;88;28083;-66
2022/05/22 09:04:38;;;;;;;2.80;0.90;;;;;;;24.28;33.56;100159.88;2005309;88;31033;-66
2022/05/22 09:08:06;;;;;;;1.47;0.70;;;;;;;23.89;33.81;100152.23;2008022;88;32884;-66
2022/05/22 09:11:53;;;;;;;1.52;0.90;;;;;;;23.40;34.06;100160.60;2008190;88;29572;-66
2022/05/22 09:15:03;;;;;;;4.03;0.72;;;;;;;22.89;34.28;100164.03;2007972;88;27591;-67
2022/05/22 09:18:14;;;;;;;4.15;0.72;;;;;;;22.67;34.86;100174.12;2008100;88;28817;-66
2022/05/22 09:21:58;;;;;;;3.52;1.00;;;;;;;22.54;35.05;100160.88;2008060;88;31096;-66
2022/05/22 09:25:55;;;;;;;1.87;0.85;;;;;;;22.41;35.20;100163.47;2007672;88;33039;-67
2022/05/22 09:29:52;;;;;;;4.50;1.00;;;;;;;22.01;35.33;100164.77;2007989;88;29380;-68
2022/05/22 09:33:14;;;;;;;4.83;1.15;;;;;;;21.85;35.67;100163.58;2008171;88;27777;-67
2022/05/22 09:36:22;;;;;;;4.95;0.70;;;;;;;21.86;36.17;100165.79;2038134;85;29432;-67
2022/05/22 09:40:03;;;;;;;1.95;0.98;;;;;;;22.13;36.49;100167.62;1984367;88;31058;-68
2022/05/22 09:43:34;;;;;;;1.60;0.88;;;;;;;22.37;36.47;100161.19;1954589;91;33063;-65
2022/05/22 09:47:06;;;;;;;2.12;1.00;;;;;;;22.72;36.23;100156.73;1954353;91;29338;-64
2022/05/22 09:50:21;;;;;;;1.37;0.70;;;;;;;22.76;35.82;100154.88;1954654;91;27777;-66
2022/05/22 09:53:46;;;;;;;1.72;0.95;;;;;;;22.70;35.85;100154.17;1954302;89;29633;-66
2022/05/22 09:56:57;;;;;;;;;;;;;;;22.65;35.59;100157.88;1956816;91;31046;-66
2022/05/22 10:00:20;;;;;;;3.22;0.93;;;;;;;22.65;35.77;100160.61;1954563;91;32987;-67
2022/05/22 10:03:52;;;;;;;2.30;0.90;;;;;;;22.46;35.66;100158.93;1954231;91;29333;-65
2022/05/22 10:07:16;;;;;;;2.92;0.62;;;;;;;22.26;35.84;100157.69;1954243;89;27820;-65
2022/05/22 10:10:38;;;;;;;3.45;0.93;;;;;;;22.18;36.04;100162.21;1954432;89;29566;-67
2022/05/22 10:14:26;;;;;;;4.37;1.00;;;;;;;22.30;36.26;100166.41;1970303;89;31285;-67
2022/05/22 10:18:06;;;;;;;2.52;1.07;;;;;;;22.51;35.94;100155.72;2052356;86;32982;-66
2022/05/22 10:21:19;;;;;;;4.80;0.70;;;;;;;22.76;35.66;100156.25;2075055;85;29331;-65
2022/05/22 10:24:46;;;;;;;1.92;0.68;;;;;;;23.11;35.18;100163.65;2056317;85;28157;-65
2022/05/22 10:28:05;;;;;;;1.80;0.98;;;;;;;23.08;35.47;100164.00;2052715;86;28785;-65
2022/05/22 10:31:27;;;;;;;1.82;0.90;;;;;;;22.95;35.26;100172.61;2052535;86;31677;-64
2022/05/22 10:34:45;;;;;;;5.87;0.72;;;;;;;22.58;35.54;100180.87;2052515;86;33234;-65
2022/05/22 10:38:04;;;;;;;3.52;1.05;;;;;;;22.29;35.77;100179.70;2052642;86;29379;-65
2022/05/22 10:45:00;;;;;;;2.05;0.80;;;;;;;22.08;36.09;100183.62;2102006;84;28696;-67
2022/05/22 10:48:22;;;;;;;1.00;0.70;;;;;;;22.04;35.97;100185.42;2107622;83;31872;-67
2022/05/22 10:51:27;;;;;;;2.15;1.00;;;;;;;21.93;36.03;100194.19;2075140;85;32521;-67
2022/05/22 10:54:33;;;;;;;3.52;0.82;;;;;;;21.76;36.17;100189.55;2108366;84;29260;-68
2022/05/22 10:57:35;;;;;;;1.37;0.90;;;;;;;21.58;36.35;100212.64;2108394;84;27734;-67
2022/05/22 11:00:37;;;;;;;5.65;0.95;;;;;;;21.37;36.54;100203.66;2108301;84;29638;-67
2022/05/22 11:03:39;;;;;;;1.17;0.85;;;;;;;21.13;36.85;100204.69;2108236;84;30986;-67
2022/05/22 11:07:00;;;;;;;2.75;1.20;;;;;;;20.89;36.93;100207.38;2039673;86;33772;-68
2022/05/22 11:10:19;;;;;;;2.22;0.98;;;;;;;20.63;37.36;100202.52;2017125;87;29365;-66
2022/05/22 11:13:28;;;;;;;3.65;1.10;;;;;;;20.57;37.78;100187.62;2108414;83;27606;-66
2022/05/22 11:16:47;;;;;;;;;;;;;;;;;;;;;
2022/05/22 11:20:02;;;;;;;2.52;1.22;;;;;;;20.85;38.20;100193.72;2108153;84;31235;-66
2022/05/22 11:23:31;;;;;;;;;;;;;;;21.06;38.25;100185.36;2114651;82;32960;-66
2022/05/22 11:27:13;;;;;;;1.75;0.70;;;;;;;21.43;38.26;100179.55;2123733;83;29504;-66
2022/05/22 11:30:36;;;;;;;3.50;0.80;;;;;;;21.71;38.00;100181.83;2123730;83;27678;-66
2022/05/22 11:34:05;;;;;;;5.47;1.40;;;;;;;21.88;37.34;100173.84;2123715;83;28692;-66
2022/05/22 11:37:38;;;;;;;2.12;0.82;;;;;;;22.04;37.27;100169.05;2123828;83;31263;-67
2022/05/22 11:41:13;;;;;;;5.10;1.37;;;;;;;22.15;37.37;100168.84;2123611;83;33032;-67
2022/05/22 11:44:48;;;;;;;4.80;1.12;;;;;;;22.25;37.02;100168.25;2123645;83;29329;-66
2022/05/22 11:48:07;;;;;;;1.90;0.67;;;;;;;22.50;36.48;100164.92;2123786;83;27679;-67
2022/05/22 11:51:32;;;;;;;1.72;0.90;;;;;;;22.50;36.48;100164.92;2123652;83;28756;-67
2022/05/22 11:54:49;;;;;;;3.60;1.20;;;;;;;22.52;36.30;100166.47;2094863;83;31110;-67
2022/05/22 11:58:30;;;;;;;2.15;1.00;;;;;;;22.64;36.69;100160.26;2095078;84;33623;-68
2022/05/22 12:01:52;;;;;;;1.80;1.10;;;;;;;22.92;36.71;100162.84;2095501;84;29339;-65
2022/05/22 12:05:23;;;;;;;2.47;0.78;;;;;;;23.01;36.22;100155.06;2095027;84;27839;-65
2022/05/22 12:09:01;;;;;;;1.87;1.22;;;;;;;23.05;35.79;100147.39;2095780;84;28660;-66
2022/05/22 12:12:32;;;;;;;3.98;1.42;;;;;;;23.01;34.92;100153.70;2095634;84;31051;-65
2022/05/22 12:15:52;;;;;;;2.52;1.30;;;;;;;22.80;35.10;100136.81;2094913;84;33838;-66
2022/05/22 12:19:05;;;;;;;2.35;1.05;;;;;;;22.60;34.57;100145.20;2095328;84;29337;-66
2022/05/22 12:22:18;;;;;;;1.92;0.70;;;;;;;22.32;34.98;100139.83;2095181;84;27785;-66
2022/05/22 12:25:25;;;;;;;5.05;1.20;;;;;;;22.25;35.52;100138.76;2094696;84;28821;-66
2022/05/22 12:28:53;;;;;;;5.12;2.05;;;;;;;22.18;35.74;100137.66;2095176;84;31071;-64
2022/05/22 12:32:04;;;;;;;6.42;1.27;;;;;;;22.23;35.91;100133.44;2112865;83;33025;-65
2022/05/22 12:35:08;;;;;;;3.40;0.82;;;;;;;22.39;36.04;100134.11;2123411;82;29319;-67
2022/05/22 12:38:13;;;;;;;4.03;1.25;;;;;;;22.36;35.52;100128.95;2117871;83;27724;-66
2022/05/22 12:41:21;;;;;;;1.70;0.95;;;;;;;22.24;35.99;100128.33;2117742;83;28847;-66
2022/05/22 12:44:25;;;;;;;1.77;1.05;;;;;;;22.36;36.22;100116.67;2114595;82;31089;-66
2022/05/22 12:47:50;;;;;;;2.37;0.90;;;;;;;22.51;36.18;100115.61;2084248;85;33012;-65
2022/05/22 12:51:10;;;;;;;2.10;0.90;;;;;;;22.72;36.11;100104.35;2084067;85;29370;-66
2022/05/22 12:54:22;;;;;;;2.58;0.90;;;;;;;22.82;35.21;100119.27;2146103;83;27520;-66
2022/05/22 12:57:28;;;;;;;2.40;1.20;;;;;;;22.71;34.77;100120.39;2145742;83;28704;-65
2022/05/22 13:00:44;;;;;;;3.72;1.12;;;;;;;22.47;34.78;100115.61;2145670;83;31070;-66
2022/05/22 13:03:50;;;;;;;1.57;0.90;;;;;;;22.36;34.79;100112.58;2145506;83;34044;-66
2022/05/22 13:07:03;;;;;;;2.85;0.90;;;;;;;22.21;34.91;100107.33;2123299;83;29386;-66
2022/05/22 13:10:32;;;;;;;2.58;1.27;;;;;;;22.21;34.99;100112.27;2123917;83;27706;-66
2022/05/22 13:13:40;;;;;;;3.10;1.10;;;;;;;22.19;34.66;100103.90;2117404;82;29572;-66
2022/05/22 13:16:48;;;;;;;2.47;1.00;;;;;;;22.24;34.76;100105.66;2116354;82;31042;-66
2022/05/22 13:19:54;;;;;;;5.42;1.75;;;;;;;22.30;34.66;100096.33;2117682;84;32905;-67
2022/05/22 13:23:13;;;;;;;3.92;1.42;;;;;;;22.38;34.75;100100.12;2112431;83;29412;-68
2022/05/22 13:26:21;;;;;;;3.65;1.12;;;;;;;22.32;34.65;100097.53;2145851;82;27698;-68
2022/05/22 13:29:28;;;;;;;2.20;0.93;;;;;;;22.18;34.54;100099.45;2145801;83;28645;-67
2022/05/22 13:32:51;;;;;;;2.30;1.30;;;;;;;22.03;34.81;100085.00;2123700;83;31811;-69
2022/05/22 13:36:04;;;;;;;1.80;1.00;;;;;;;22.06;35.03;100100.19;2145646;83;33019;-67
2022/05/22 13:39:11;;;;;;;2.85;1.47;;;;;;;22.01;35.00;100098.78;2145710;83;30212;-67
2022/05/22 13:42:45;;;;;;;5.17;1.35;;;;;;;22.00;35.45;100094.37;2145405;82;27630;-66
2022/05/22 13:46:16;;;;;;;5.17;1.00;;;;;;;21.95;35.05;100095.82;2145295;83;28708;-67
2022/05/22 13:52:34;;;;;;;3.20;1.42;;;;;;;21.72;35.04;100094.05;2145850;83;31859;-66
2022/05/22 13:53:17;;;;;;;5.20;1.15;;;;;;;21.42;35.27;100086.53;2005384;88;32970;-66
2022/05/22 13:56:22;;;;;;;4.15;1.90;;;;;;;21.15;35.67;100090.47;1977222;90;28918;-66
2022/05/22 13:59:32;;;;;;;2.90;1.20;;;;;;;21.03;36.04;100087.59;1977096;90;27701;-66
2022/05/22 14:03:03;;;;;;;1.95;1.55;;;;;;;21.06;36.38;100092.23;1976175;88;28646;-66
2022/05/22 14:06:07;;;;;;;4.30;1.52;;;;;;;21.05;36.13;100090.51;1976923;90;31085;-66
2022/05/22 14:09:20;;;;;;;2.27;1.00;;;;;;;21.08;36.15;100086.12;1976964;90;32960;-67
2022/05/22 14:12:33;;;;;;;3.58;1.37;;;;;;;21.18;36.25;100077.07;1975895;88;29336;-66
2022/05/22 14:15:34;;;;;;;2.55;1.40;;;;;;;21.34;36.12;100075.91;1977206;90;27770;-66
2022/05/22 14:18:37;;;;;;;3.12;1.10;;;;;;;21.46;35.95;100078.42;1977059;90;28792;-68
2022/05/22 14:21:45;;;;;;;1.80;0.85;;;;;;;21.52;36.30;100075.94;1977022;90;31009;-67
2022/05/22 14:24:54;;;;;;;1.92;0.78;;;;;;;21.60;35.86;100073.84;1980654;89;32978;-67
2022/05/22 14:27:56;;;;;;;1.87;1.10;;;;;;;21.51;35.64;100067.92;1975219;89;29364;-67
2022/05/22 14:30:59;;;;;;;1.92;1.05;;;;;;;21.52;35.62;100067.76;1997441;89;27949;-67
2022/05/22 14:34:02;;;;;;;1.67;0.80;;;;;;;21.49;35.48;100069.42;2026883;87;28672;-66
2022/05/22 14:37:05;;;;;;;2.75;1.27;;;;;;;21.42;35.75;100070.19;2064715;85;30743;-65
2022/05/22 14:40:22;;;;;;;3.80;0.98;;;;;;;21.30;35.96;100067.68;2088047;85;32962;-66
2022/05/22 14:44:02;;;;;;;0.93;0.72;;;;;;;21.27;36.25;100065.25;2087314;84;29393;-66
2022/05/22 14:47:01;;;;;;;2.42;1.05;;;;;;;21.37;36.17;100063.84;2087372;85;28317;-66
2022/05/22 14:50:04;;;;;;;6.22;1.57;;;;;;;21.35;36.25;100062.61;2088005;84;29490;-66
2022/05/22 14:53:11;;;;;;;3.10;1.12;;;;;;;21.19;35.95;100049.66;2087577;85;31891;-66
2022/05/22 14:56:17;;;;;;;4.85;1.50;;;;;;;21.11;36.47;100049.55;2088110;85;33560;-67
2022/05/22 14:59:25;;;;;;;2.35;1.20;;;;;;;21.01;36.38;100055.56;2087995;85;30100;-66
2022/05/22 15:02:44;;;;;;;3.47;1.25;;;;;;;20.93;36.43;100049.50;2086820;85;27710;-66
2022/05/22 15:05:52;;;;;;;4.85;1.00;;;;;;;20.90;36.56;100057.48;2081996;85;28644;-66
2022/05/22 15:08:58;;;;;;;3.12;1.32;;;;;;;20.80;36.55;100058.00;2088019;84;31694;-66
2022/05/22 15:12:13;;;;;;;3.65;0.90;;;;;;;20.67;36.71;100057.44;2087955;84;33762;-66